sensor_id;sensor_type;location;lat;lon;timestamp;pressure;altitude;pressure_sealevel;temperature;humidity
64064;BME280;50314;50.618;10.642;2023-04-08T00:00:24;96904.50;;;16.86;19.51
64064;BME280;50314;50.618;10.642;2023-04-08T00:02:50;96910.81;;;16.85;19.45
64064;BME280;50314;50.618;10.642;2023-04-08T00:05:16;96902.97;;;16.84;19.66
64064;BME280;50314;50.618;10.642;2023-04-08T00:07:41;96895.97;;;16.83;19.56
64064;BME280;50314;50.618;10.642;2023-04-08T00:10:07;96900.47;;;16.82;19.66
64064;BME280;50314;50.618;10.642;2023-04-08T00:12:33;96904.94;;;16.82;19.61
64064;BME280;50314;50.618;10.642;2023-04-08T00:14:58;96899.03;;;16.78;19.70
64064;BME280;50314;50.618;10.642;2023-04-08T00:17:24;96903.50;;;16.78;19.72
64064;BME280;50314;50.618;10.642;2023-04-08T00:19:50;96897.34;;;16.77;19.78
64064;BME280;50314;50.618;10.642;2023-04-08T00:22:15;96900.31;;;16.74;19.64
64064;BME280;50314;50.618;10.642;2023-04-08T00:24:41;96896.97;;;16.72;19.75
64064;BME280;50314;50.618;10.642;2023-04-08T00:27:07;96897.94;;;16.71;19.68
64064;BME280;50314;50.618;10.642;2023-04-08T00:29:32;96895.44;;;16.70;19.93
64064;BME280;50314;50.618;10.642;2023-04-08T00:31:58;96894.75;;;16.67;19.67
64064;BME280;50314;50.618;10.642;2023-04-08T00:34:23;96898.22;;;16.68;19.86
64064;BME280;50314;50.618;10.642;2023-04-08T00:36:49;96896.84;;;16.64;19.83
64064;BME280;50314;50.618;10.642;2023-04-08T00:39:15;96897.03;;;16.62;19.83
64064;BME280;50314;50.618;10.642;2023-04-08T00:41:40;96897.16;;;16.61;19.93
64064;BME280;50314;50.618;10.642;2023-04-08T00:44:06;96895.47;;;16.60;19.89
64064;BME280;50314;50.618;10.642;2023-04-08T00:46:37;96896.59;;;16.57;20.04
64064;BME280;50314;50.618;10.642;2023-04-08T00:49:03;96902.75;;;16.58;19.94
64064;BME280;50314;50.618;10.642;2023-04-08T00:51:29;96902.09;;;16.56;20.15
64064;BME280;50314;50.618;10.642;2023-04-08T00:53:58;96899.56;;;16.54;20.11
64064;BME280;50314;50.618;10.642;2023-04-08T00:56:26;96904.03;;;16.54;20.07
64064;BME280;50314;50.618;10.642;2023-04-08T00:58:51;96907.28;;;16.48;20.29
64064;BME280;50314;50.618;10.642;2023-04-08T01:01:33;96900.28;;;16.47;20.17
64064;BME280;50314;50.618;10.642;2023-04-08T01:07:17;96907.28;;;16.48;20.34
64064;BME280;50314;50.618;10.642;2023-04-08T01:09:45;96901.97;;;16.48;20.27
64064;BME280;50314;50.618;10.642;2023-04-08T01:12:12;96902.81;;;16.48;20.23
64064;BME280;50314;50.618;10.642;2023-04-08T01:14:42;96903.66;;;16.49;20.26
64064;BME280;50314;50.618;10.642;2023-04-08T01:17:10;96915.13;;;16.49;20.07
64064;BME280;50314;50.618;10.642;2023-04-08T01:19:38;96911.75;;;16.47;20.32
64064;BME280;50314;50.618;10.642;2023-04-08T01:22:28;96909.53;;;16.42;20.42
64064;BME280;50314;50.618;10.642;2023-04-08T01:25:05;96912.19;;;16.42;20.43
64064;BME280;50314;50.618;10.642;2023-04-08T01:27:34;96911.22;;;16.43;20.36
64064;BME280;50314;50.618;10.642;2023-04-08T01:30:02;96913.75;;;16.45;20.32
64064;BME280;50314;50.618;10.642;2023-04-08T01:32:29;96907.44;;;16.46;20.28
64064;BME280;50314;50.618;10.642;2023-04-08T01:34:57;96918.19;;;16.44;20.30
64064;BME280;50314;50.618;10.642;2023-04-08T01:37:24;96910.38;;;16.43;20.21
64064;BME280;50314;50.618;10.642;2023-04-08T01:39:53;96918.19;;;16.44;20.43
64064;BME280;50314;50.618;10.642;2023-04-08T01:42:19;96916.25;;;16.37;20.48
64064;BME280;50314;50.618;10.642;2023-04-08T01:44:45;96914.88;;;16.42;20.45
64064;BME280;50314;50.618;10.642;2023-04-08T01:47:12;96917.53;;;16.42;20.45
64064;BME280;50314;50.618;10.642;2023-04-08T01:49:38;96916.53;;;16.43;20.32
64064;BME280;50314;50.618;10.642;2023-04-08T01:52:04;96914.03;;;16.42;20.42
64064;BME280;50314;50.618;10.642;2023-04-08T01:54:30;96919.47;;;16.40;20.26
64064;BME280;50314;50.618;10.642;2023-04-08T01:56:57;96922.00;;;16.42;20.65
64064;BME280;50314;50.618;10.642;2023-04-08T01:59:28;96921.28;;;16.40;20.62
64064;BME280;50314;50.618;10.642;2023-04-08T02:01:56;96917.66;;;16.41;20.36
64064;BME280;50314;50.618;10.642;2023-04-08T02:04:21;96916.81;;;16.40;20.63
64064;BME280;50314;50.618;10.642;2023-04-08T02:06:47;96919.63;;;16.39;20.44
64064;BME280;50314;50.618;10.642;2023-04-08T02:09:12;96923.25;;;16.38;20.34
64064;BME280;50314;50.618;10.642;2023-04-08T02:11:38;96911.78;;;16.37;20.52
64064;BME280;50314;50.618;10.642;2023-04-08T02:14:03;96919.75;;;16.37;20.60
64064;BME280;50314;50.618;10.642;2023-04-08T02:16:33;96914.59;;;16.36;20.69
64064;BME280;50314;50.618;10.642;2023-04-08T02:19:13;96920.91;;;16.35;20.59
64064;BME280;50314;50.618;10.642;2023-04-08T02:21:48;96920.03;;;16.34;20.49
64064;BME280;50314;50.618;10.642;2023-04-08T02:24:15;96922.41;;;16.37;20.52
64064;BME280;50314;50.618;10.642;2023-04-08T02:26:42;96922.28;;;16.39;20.58
64064;BME280;50314;50.618;10.642;2023-04-08T02:29:12;96915.44;;;16.36;20.68
64064;BME280;50314;50.618;10.642;2023-04-08T02:31:41;96929.72;;;16.35;20.66
64064;BME280;50314;50.618;10.642;2023-04-08T02:34:11;96915.72;;;16.33;20.70
64064;BME280;50314;50.618;10.642;2023-04-08T02:36:38;96917.38;;;16.34;20.56
64064;BME280;50314;50.618;10.642;2023-04-08T02:39:05;96921.59;;;16.27;20.73
64064;BME280;50314;50.618;10.642;2023-04-08T02:41:30;96918.53;;;16.32;20.54
64064;BME280;50314;50.618;10.642;2023-04-08T02:43:56;96916.00;;;16.30;20.64
64064;BME280;50314;50.618;10.642;2023-04-08T02:46:22;96920.38;;;16.31;20.61
64064;BME280;50314;50.618;10.642;2023-04-08T02:48:47;96920.03;;;16.34;20.33
64064;BME280;50314;50.618;10.642;2023-04-08T02:51:13;96921.19;;;16.32;20.46
64064;BME280;50314;50.618;10.642;2023-04-08T02:53:38;96919.50;;;16.31;20.52
64064;BME280;50314;50.618;10.642;2023-04-08T02:56:04;96917.00;;;16.29;20.78
64064;BME280;50314;50.618;10.642;2023-04-08T02:58:30;96918.00;;;16.28;20.58
64064;BME280;50314;50.618;10.642;2023-04-08T03:00:55;96922.31;;;16.29;20.66
64064;BME280;50314;50.618;10.642;2023-04-08T03:03:21;96926.91;;;16.27;20.49
64064;BME280;50314;50.618;10.642;2023-04-08T03:05:54;96919.94;;;16.26;20.58
64064;BME280;50314;50.618;10.642;2023-04-08T03:08:20;96921.88;;;16.24;20.57
64064;BME280;50314;50.618;10.642;2023-04-08T03:10:46;96918.56;;;16.22;20.50
64064;BME280;50314;50.618;10.642;2023-04-08T03:13:11;96918.56;;;16.22;20.69
64064;BME280;50314;50.618;10.642;2023-04-08T03:15:37;96920.22;;;16.23;20.57
64064;BME280;50314;50.618;10.642;2023-04-08T03:18:02;96929.19;;;16.22;20.55
64064;BME280;50314;50.618;10.642;2023-04-08T03:20:34;96924.00;;;16.20;20.75
64064;BME280;50314;50.618;10.642;2023-04-08T03:23:00;96922.16;;;16.21;20.73
64064;BME280;50314;50.618;10.642;2023-04-08T03:25:26;96923.16;;;16.20;20.61
64064;BME280;50314;50.618;10.642;2023-04-08T03:27:53;96925.00;;;16.19;20.61
64064;BME280;50314;50.618;10.642;2023-04-08T03:30:19;96927.81;;;16.18;20.64
64064;BME280;50314;50.618;10.642;2023-04-08T03:32:44;96928.75;;;16.17;20.73
64064;BME280;50314;50.618;10.642;2023-04-08T03:35:10;96925.44;;;16.15;20.90
64064;BME280;50314;50.618;10.642;2023-04-08T03:37:35;96928.22;;;16.13;20.93
64064;BME280;50314;50.618;10.642;2023-04-08T03:40:02;96935.34;;;16.13;20.86
64064;BME280;50314;50.618;10.642;2023-04-08T03:42:28;96936.34;;;16.12;20.64
64064;BME280;50314;50.618;10.642;2023-04-08T03:44:53;96939.84;;;16.12;20.72
64064;BME280;50314;50.618;10.642;2023-04-08T03:47:19;96936.44;;;16.10;20.91
64064;BME280;50314;50.618;10.642;2023-04-08T03:49:44;96939.25;;;16.09;20.72
64064;BME280;50314;50.618;10.642;2023-04-08T03:52:09;96942.59;;;16.11;20.79
64064;BME280;50314;50.618;10.642;2023-04-08T03:54:35;96940.25;;;16.08;20.95
64064;BME280;50314;50.618;10.642;2023-04-08T03:57:00;96942.03;;;16.07;20.84
64064;BME280;50314;50.618;10.642;2023-04-08T03:59:26;96937.59;;;16.08;20.68
64064;BME280;50314;50.618;10.642;2023-04-08T04:01:51;96937.59;;;16.08;20.81
64064;BME280;50314;50.618;10.642;2023-04-08T04:04:18;96940.34;;;16.06;20.60
64064;BME280;50314;50.618;10.642;2023-04-08T04:06:43;96951.81;;;16.07;20.82
64064;BME280;50314;50.618;10.642;2023-04-08T04:09:08;96951.00;;;16.06;20.70
64064;BME280;50314;50.618;10.642;2023-04-08T04:11:35;96958.97;;;16.06;20.84
64064;BME280;50314;50.618;10.642;2023-04-08T04:14:00;96953.81;;;16.05;21.06
64064;BME280;50314;50.618;10.642;2023-04-08T04:16:26;96959.25;;;16.03;20.86
64064;BME280;50314;50.618;10.642;2023-04-08T04:18:52;96959.41;;;16.02;20.78
64064;BME280;50314;50.618;10.642;2023-04-08T04:21:18;96958.69;;;16.00;20.74
64064;BME280;50314;50.618;10.642;2023-04-08T04:23:43;96952.69;;;15.97;21.13
64064;BME280;50314;50.618;10.642;2023-04-08T04:26:09;96958.84;;;15.98;20.93
64064;BME280;50314;50.618;10.642;2023-04-08T04:28:35;96963.31;;;15.97;20.98
64064;BME280;50314;50.618;10.642;2023-04-08T04:31:00;96963.31;;;15.97;20.93
64064;BME280;50314;50.618;10.642;2023-04-08T04:33:26;96966.94;;;15.96;20.95
64064;BME280;50314;50.618;10.642;2023-04-08T04:35:51;96966.94;;;15.96;21.21
64064;BME280;50314;50.618;10.642;2023-04-08T04:38:17;96963.44;;;15.96;20.96
64064;BME280;50314;50.618;10.642;2023-04-08T04:40:42;96955.47;;;15.96;20.98
64064;BME280;50314;50.618;10.642;2023-04-08T04:43:08;96968.75;;;15.96;20.97
64064;BME280;50314;50.618;10.642;2023-04-08T04:45:34;96966.25;;;15.94;21.00
64064;BME280;50314;50.618;10.642;2023-04-08T04:47:59;96974.22;;;15.94;21.21
64064;BME280;50314;50.618;10.642;2023-04-08T04:50:26;96972.53;;;15.93;21.15
64064;BME280;50314;50.618;10.642;2023-04-08T04:52:51;96971.69;;;15.93;21.13
64064;BME280;50314;50.618;10.642;2023-04-08T04:55:16;96979.66;;;15.93;21.13
64064;BME280;50314;50.618;10.642;2023-04-08T04:57:42;96973.50;;;15.92;21.07
64064;BME280;50314;50.618;10.642;2023-04-08T05:00:09;96976.88;;;15.94;21.01
64064;BME280;50314;50.618;10.642;2023-04-08T05:02:35;96976.16;;;15.92;21.19
64064;BME280;50314;50.618;10.642;2023-04-08T05:05:00;96978.13;;;15.90;21.10
64064;BME280;50314;50.618;10.642;2023-04-08T05:07:26;96981.75;;;15.89;21.18
64064;BME280;50314;50.618;10.642;2023-04-08T05:09:52;96979.81;;;15.91;20.97
64064;BME280;50314;50.618;10.642;2023-04-08T05:12:17;96983.44;;;15.90;21.04
64064;BME280;50314;50.618;10.642;2023-04-08T05:14:45;96977.16;;;15.91;21.13
64064;BME280;50314;50.618;10.642;2023-04-08T05:17:11;96981.47;;;15.92;21.05
64064;BME280;50314;50.618;10.642;2023-04-08T05:19:36;96981.47;;;15.92;21.26
64064;BME280;50314;50.618;10.642;2023-04-08T05:22:01;96979.81;;;15.91;21.38
64064;BME280;50314;50.618;10.642;2023-04-08T05:24:27;96982.47;;;15.91;21.02
64064;BME280;50314;50.618;10.642;2023-04-08T05:26:52;96987.78;;;15.91;21.27
64064;BME280;50314;50.618;10.642;2023-04-08T05:29:18;96986.94;;;15.91;21.55
64064;BME280;50314;50.618;10.642;2023-04-08T05:31:46;96987.78;;;15.91;21.35
64064;BME280;50314;50.618;10.642;2023-04-08T05:34:11;96987.63;;;15.93;21.25
64064;BME280;50314;50.618;10.642;2023-04-08T05:36:37;96991.13;;;15.93;21.38
64064;BME280;50314;50.618;10.642;2023-04-08T05:39:02;96998.81;;;15.96;21.12
64064;BME280;50314;50.618;10.642;2023-04-08T05:41:28;96997.00;;;15.97;21.31
64064;BME280;50314;50.618;10.642;2023-04-08T05:43:53;97004.97;;;15.97;21.38
64064;BME280;50314;50.618;10.642;2023-04-08T05:46:19;97003.84;;;16.00;21.25
64064;BME280;50314;50.618;10.642;2023-04-08T05:48:44;97002.84;;;16.01;21.51
64064;BME280;50314;50.618;10.642;2023-04-08T05:51:13;97006.50;;;16.00;21.64
64064;BME280;50314;50.618;10.642;2023-04-08T05:53:40;97007.22;;;16.02;21.30
64064;BME280;50314;50.618;10.642;2023-04-08T05:56:06;97010.69;;;15.92;21.67
64064;BME280;50314;50.618;10.642;2023-04-08T05:58:32;97015.31;;;16.00;21.31
64064;BME280;50314;50.618;10.642;2023-04-08T06:00:57;97018.69;;;16.02;21.28
64064;BME280;50314;50.618;10.642;2023-04-08T06:03:23;97018.53;;;16.04;21.33
64064;BME280;50314;50.618;10.642;2023-04-08T06:05:48;97025.38;;;16.06;21.56
64064;BME280;50314;50.618;10.642;2023-04-08T06:08:14;97027.91;;;16.08;21.35
64064;BME280;50314;50.618;10.642;2023-04-08T06:10:39;97027.59;;;16.11;21.43
64064;BME280;50314;50.618;10.642;2023-04-08T06:13:05;97024.03;;;16.12;21.51
64064;BME280;50314;50.618;10.642;2023-04-08T06:15:30;97029.06;;;16.15;21.66
64064;BME280;50314;50.618;10.642;2023-04-08T06:17:56;97027.09;;;16.17;21.61
64064;BME280;50314;50.618;10.642;2023-04-08T06:20:22;97024.16;;;16.20;21.69
64064;BME280;50314;50.618;10.642;2023-04-08T06:22:47;97023.16;;;16.21;21.86
64064;BME280;50314;50.618;10.642;2023-04-08T06:25:13;97025.69;;;16.23;22.09
64064;BME280;50314;50.618;10.642;2023-04-08T06:27:38;97034.22;;;16.26;22.35
64064;BME280;50314;50.618;10.642;2023-04-08T06:30:04;97034.22;;;16.26;22.18
64064;BME280;50314;50.618;10.642;2023-04-08T06:32:30;97033.94;;;16.29;22.16
64064;BME280;50314;50.618;10.642;2023-04-08T06:34:55;97038.97;;;16.32;22.09
64064;BME280;50314;50.618;10.642;2023-04-08T06:37:20;97039.66;;;16.34;22.03
64064;BME280;50314;50.618;10.642;2023-04-08T06:39:46;97035.75;;;16.38;22.08
64064;BME280;50314;50.618;10.642;2023-04-08T06:42:11;97047.06;;;16.40;22.03
64064;BME280;50314;50.618;10.642;2023-04-08T06:44:37;97043.28;;;16.43;22.10
64064;BME280;50314;50.618;10.642;2023-04-08T06:47:02;97049.31;;;16.45;22.02
64064;BME280;50314;50.618;10.642;2023-04-08T06:49:28;97046.38;;;16.48;21.93
64064;BME280;50314;50.618;10.642;2023-04-08T06:51:54;97053.91;;;16.53;21.90
64064;BME280;50314;50.618;10.642;2023-04-08T06:54:20;97048.59;;;16.53;22.00
64064;BME280;50314;50.618;10.642;2023-04-08T06:56:45;97058.97;;;16.56;22.05
64064;BME280;50314;50.618;10.642;2023-04-08T06:59:11;97064.81;;;16.59;21.96
64064;BME280;50314;50.618;10.642;2023-04-08T07:01:36;97061.06;;;16.62;21.89
64064;BME280;50314;50.618;10.642;2023-04-08T07:04:02;97054.31;;;16.67;22.04
64064;BME280;50314;50.618;10.642;2023-04-08T07:06:27;97062.84;;;16.71;21.93
64064;BME280;50314;50.618;10.642;2023-04-08T07:08:52;97058.94;;;16.75;21.94
64064;BME280;50314;50.618;10.642;2023-04-08T07:11:18;97062.25;;;16.77;21.90
64064;BME280;50314;50.618;10.642;2023-04-08T07:13:43;97072.53;;;16.82;21.99
64064;BME280;50314;50.618;10.642;2023-04-08T07:16:09;97078.53;;;16.84;21.95
64064;BME280;50314;50.618;10.642;2023-04-08T07:18:34;97075.41;;;16.88;21.88
64064;BME280;50314;50.618;10.642;2023-04-08T07:21:00;97073.47;;;16.90;22.12
64064;BME280;50314;50.618;10.642;2023-04-08T07:23:26;97062.53;;;16.94;21.88
64064;BME280;50314;50.618;10.642;2023-04-08T07:25:52;97073.03;;;16.95;22.10
64064;BME280;50314;50.618;10.642;2023-04-08T07:28:18;97082.72;;;16.96;22.03
64064;BME280;50314;50.618;10.642;2023-04-08T07:30:44;97081.59;;;16.99;21.89
64064;BME280;50314;50.618;10.642;2023-04-08T07:33:10;97083.09;;;17.01;21.90
64064;BME280;50314;50.618;10.642;2023-04-08T07:35:35;97086.31;;;17.05;21.98
64064;BME280;50314;50.618;10.642;2023-04-08T07:38:00;97095.81;;;17.07;21.87
64064;BME280;50314;50.618;10.642;2023-04-08T07:40:26;97099.19;;;17.09;22.03
64064;BME280;50314;50.618;10.642;2023-04-08T07:42:51;97085.72;;;17.11;21.51
64064;BME280;50314;50.618;10.642;2023-04-08T07:45:17;97092.72;;;17.12;21.42
64064;BME280;50314;50.618;10.642;2023-04-08T07:47:43;97105.34;;;17.10;21.28
64064;BME280;50314;50.618;10.642;2023-04-08T07:50:08;97093.88;;;17.09;21.54
64064;BME280;50314;50.618;10.642;2023-04-08T07:52:34;97098.34;;;17.09;21.56
64064;BME280;50314;50.618;10.642;2023-04-08T07:54:59;97093.88;;;17.09;21.66
64064;BME280;50314;50.618;10.642;2023-04-08T07:57:26;97094.69;;;17.10;21.49
64064;BME280;50314;50.618;10.642;2023-04-08T07:59:51;97098.19;;;17.10;21.64
64064;BME280;50314;50.618;10.642;2023-04-08T08:02:17;97108.00;;;17.10;21.67
64064;BME280;50314;50.618;10.642;2023-04-08T08:04:42;97105.34;;;17.10;21.94
64064;BME280;50314;50.618;10.642;2023-04-08T08:07:08;97109.00;;;17.09;21.90
64064;BME280;50314;50.618;10.642;2023-04-08T08:09:33;97109.84;;;17.09;21.87
64064;BME280;50314;50.618;10.642;2023-04-08T08:11:59;97109.00;;;17.09;21.94
64064;BME280;50314;50.618;10.642;2023-04-08T08:14:24;97109.00;;;17.09;21.88
64064;BME280;50314;50.618;10.642;2023-04-08T08:16:51;97119.66;;;17.09;21.81
64064;BME280;50314;50.618;10.642;2023-04-08T08:19:19;97121.44;;;17.08;21.90
64064;BME280;50314;50.618;10.642;2023-04-08T08:21:47;97123.28;;;17.08;21.86
64064;BME280;50314;50.618;10.642;2023-04-08T08:24:12;97129.44;;;17.08;21.83
64064;BME280;50314;50.618;10.642;2023-04-08T08:26:38;97125.94;;;17.08;21.89
64064;BME280;50314;50.618;10.642;2023-04-08T08:29:04;97134.75;;;17.08;21.83
64064;BME280;50314;50.618;10.642;2023-04-08T08:31:32;97124.09;;;17.08;21.79
64064;BME280;50314;50.618;10.642;2023-04-08T08:33:58;97123.16;;;17.09;21.74
64064;BME280;50314;50.618;10.642;2023-04-08T08:36:23;97103.38;;;17.12;21.85
64064;BME280;50314;50.618;10.642;2023-04-08T08:38:49;97104.22;;;17.12;21.94
64064;BME280;50314;50.618;10.642;2023-04-08T08:41:16;97111.78;;;17.17;21.89
64064;BME280;50314;50.618;10.642;2023-04-08T08:43:41;97118.63;;;17.20;21.91
64064;BME280;50314;50.618;10.642;2023-04-08T08:46:09;97125.47;;;17.22;21.79
64064;BME280;50314;50.618;10.642;2023-04-08T08:48:35;97133.31;;;17.24;21.78
64064;BME280;50314;50.618;10.642;2023-04-08T08:51:07;97137.81;;;17.23;21.89
64064;BME280;50314;50.618;10.642;2023-04-08T08:53:33;97142.00;;;17.26;21.66
64064;BME280;50314;50.618;10.642;2023-04-08T08:55:58;97144.69;;;17.26;21.58
64064;BME280;50314;50.618;10.642;2023-04-08T08:58:27;97153.63;;;17.25;22.00
64064;BME280;50314;50.618;10.642;2023-04-08T09:00:52;97152.66;;;17.26;21.76
64064;BME280;50314;50.618;10.642;2023-04-08T09:03:23;97157.97;;;17.26;21.62
64064;BME280;50314;50.618;10.642;2023-04-08T09:05:57;97152.78;;;17.24;21.98
64064;BME280;50314;50.618;10.642;2023-04-08T09:08:32;97162.31;;;17.27;21.90
64064;BME280;50314;50.618;10.642;2023-04-08T09:11:18;97161.47;;;17.26;21.94
64064;BME280;50314;50.618;10.642;2023-04-08T09:13:44;97168.03;;;17.32;21.84
64064;BME280;50314;50.618;10.642;2023-04-08T09:16:12;97173.91;;;17.35;21.77
64064;BME280;50314;50.618;10.642;2023-04-08T09:18:39;97170.41;;;17.35;21.29
64064;BME280;50314;50.618;10.642;2023-04-08T09:21:09;97173.50;;;17.30;20.72
64064;BME280;50314;50.618;10.642;2023-04-08T09:26:14;97171.84;;;17.29;20.73
64064;BME280;50314;50.618;10.642;2023-04-08T09:28:40;97179.97;;;17.28;21.13
64064;BME280;50314;50.618;10.642;2023-04-08T09:31:19;97179.84;;;17.29;21.49
64064;BME280;50314;50.618;10.642;2023-04-08T09:33:46;97182.31;;;17.41;21.45
64064;BME280;50314;50.618;10.642;2023-04-08T09:36:13;97180.91;;;17.46;21.22
64064;BME280;50314;50.618;10.642;2023-04-08T09:38:39;97179.50;;;17.52;21.34
64064;BME280;50314;50.618;10.642;2023-04-08T09:41:06;97185.38;;;17.55;21.11
64064;BME280;50314;50.618;10.642;2023-04-08T09:43:41;97179.91;;;17.57;21.70
64064;BME280;50314;50.618;10.642;2023-04-08T09:46:10;97180.84;;;17.66;21.49
64064;BME280;50314;50.618;10.642;2023-04-08T09:48:39;97188.25;;;17.72;21.41
64064;BME280;50314;50.618;10.642;2023-04-08T09:51:07;97191.72;;;17.82;21.50
64064;BME280;50314;50.618;10.642;2023-04-08T09:53:37;97190.84;;;17.91;21.09
64064;BME280;50314;50.618;10.642;2023-04-08T09:56:11;97191.38;;;17.95;20.88
64064;BME280;50314;50.618;10.642;2023-04-08T09:58:53;97189.09;;;18.00;21.20
64064;BME280;50314;50.618;10.642;2023-04-08T10:01:36;97186.53;;;18.08;21.42
64064;BME280;50314;50.618;10.642;2023-04-08T10:04:06;97193.38;;;18.20;21.30
64064;BME280;50314;50.618;10.642;2023-04-08T10:06:33;97192.63;;;18.28;21.75
64064;BME280;50314;50.618;10.642;2023-04-08T10:09:00;97197.91;;;18.38;21.69
64064;BME280;50314;50.618;10.642;2023-04-08T10:11:27;97203.78;;;18.59;21.25
64064;BME280;50314;50.618;10.642;2023-04-08T10:13:53;97192.63;;;18.91;21.26
64064;BME280;50314;50.618;10.642;2023-04-08T10:18:49;97196.00;;;19.71;21.11
64064;BME280;50314;50.618;10.642;2023-04-08T10:21:36;97198.13;;;20.36;20.46
64064;BME280;50314;50.618;10.642;2023-04-08T10:26:43;97200.22;;;20.83;19.86
64064;BME280;50314;50.618;10.642;2023-04-08T10:31:44;97203.03;;;21.72;19.35
64064;BME280;50314;50.618;10.642;2023-04-08T10:34:17;97210.06;;;21.81;19.10
64064;BME280;50314;50.618;10.642;2023-04-08T10:36:44;97205.69;;;21.88;18.70
64064;BME280;50314;50.618;10.642;2023-04-08T10:39:11;97202.28;;;22.02;18.68
64064;BME280;50314;50.618;10.642;2023-04-08T10:44:23;97198.25;;;22.69;18.40
64064;BME280;50314;50.618;10.642;2023-04-08T10:46:49;97200.72;;;23.02;18.28
64064;BME280;50314;50.618;10.642;2023-04-08T10:49:16;97197.19;;;23.24;17.99
64064;BME280;50314;50.618;10.642;2023-04-08T10:51:43;97190.47;;;23.43;17.60
64064;BME280;50314;50.618;10.642;2023-04-08T10:54:14;97182.25;;;23.74;17.01
64064;BME280;50314;50.618;10.642;2023-04-08T10:56:49;97189.84;;;23.85;17.29
64064;BME280;50314;50.618;10.642;2023-04-08T10:59:16;97202.53;;;24.36;16.65
64064;BME280;50314;50.618;10.642;2023-04-08T11:01:45;97203.06;;;24.82;15.64
64064;BME280;50314;50.618;10.642;2023-04-08T11:04:14;97199.47;;;25.18;15.02
64064;BME280;50314;50.618;10.642;2023-04-08T11:06:45;97191.97;;;25.63;15.04
64064;BME280;50314;50.618;10.642;2023-04-08T11:09:12;97196.97;;;25.66;15.23
64064;BME280;50314;50.618;10.642;2023-04-08T11:11:39;97190.28;;;25.62;15.12
64064;BME280;50314;50.618;10.642;2023-04-08T11:14:05;97197.53;;;25.62;15.41
64064;BME280;50314;50.618;10.642;2023-04-08T11:16:31;97196.09;;;25.38;15.59
64064;BME280;50314;50.618;10.642;2023-04-08T11:18:57;97200.22;;;25.12;15.38
64064;BME280;50314;50.618;10.642;2023-04-08T11:21:23;97204.50;;;24.85;15.67
64064;BME280;50314;50.618;10.642;2023-04-08T11:23:50;97204.72;;;24.62;15.35
64064;BME280;50314;50.618;10.642;2023-04-08T11:26:17;97196.94;;;24.37;16.22
64064;BME280;50314;50.618;10.642;2023-04-08T11:28:43;97211.38;;;24.15;15.72
64064;BME280;50314;50.618;10.642;2023-04-08T11:31:11;97207.56;;;23.95;16.24
64064;BME280;50314;50.618;10.642;2023-04-08T11:33:36;97205.22;;;23.77;16.03
64064;BME280;50314;50.618;10.642;2023-04-08T11:36:03;97211.19;;;23.57;16.37
64064;BME280;50314;50.618;10.642;2023-04-08T11:38:28;97207.78;;;23.40;16.67
64064;BME280;50314;50.618;10.642;2023-04-08T11:40:58;97215.16;;;23.24;16.93
64064;BME280;50314;50.618;10.642;2023-04-08T11:43:24;97211.88;;;23.13;16.71
64064;BME280;50314;50.618;10.642;2023-04-08T11:45:53;97214.00;;;23.03;17.33
64064;BME280;50314;50.618;10.642;2023-04-08T11:48:19;97213.69;;;22.98;17.25
64064;BME280;50314;50.618;10.642;2023-04-08T11:50:44;97217.06;;;22.92;17.19
64064;BME280;50314;50.618;10.642;2023-04-08T11:53:21;97214.13;;;22.79;17.22
64064;BME280;50314;50.618;10.642;2023-04-08T11:55:47;97216.31;;;22.75;17.05
64064;BME280;50314;50.618;10.642;2023-04-08T11:58:13;97210.19;;;22.66;17.54
64064;BME280;50314;50.618;10.642;2023-04-08T12:00:39;97212.75;;;22.60;17.60
64064;BME280;50314;50.618;10.642;2023-04-08T12:03:05;97216.13;;;22.54;17.50
64064;BME280;50314;50.618;10.642;2023-04-08T12:05:31;97217.50;;;22.49;17.40
64064;BME280;50314;50.618;10.642;2023-04-08T12:07:57;97215.19;;;22.46;17.78
64064;BME280;50314;50.618;10.642;2023-04-08T12:10:22;97216.72;;;22.41;17.57
64064;BME280;50314;50.618;10.642;2023-04-08T12:12:49;97223.25;;;22.38;17.87
64064;BME280;50314;50.618;10.642;2023-04-08T12:15:15;97214.09;;;22.33;17.81
64064;BME280;50314;50.618;10.642;2023-04-08T12:17:41;97218.94;;;22.29;17.86
64064;BME280;50314;50.618;10.642;2023-04-08T12:20:08;97217.59;;;22.25;17.86
64064;BME280;50314;50.618;10.642;2023-04-08T12:22:34;97215.63;;;22.19;18.05
64064;BME280;50314;50.618;10.642;2023-04-08T12:25:00;97224.84;;;22.16;17.97
64064;BME280;50314;50.618;10.642;2023-04-08T12:27:28;97219.00;;;22.13;18.06
64064;BME280;50314;50.618;10.642;2023-04-08T12:29:53;97225.88;;;22.07;17.97
64064;BME280;50314;50.618;10.642;2023-04-08T12:32:19;97228.09;;;22.03;18.23
64064;BME280;50314;50.618;10.642;2023-04-08T12:34:45;97222.41;;;21.98;17.82
64064;BME280;50314;50.618;10.642;2023-04-08T12:37:11;97234.66;;;21.93;18.40
64064;BME280;50314;50.618;10.642;2023-04-08T12:39:37;97226.47;;;21.86;18.27
64064;BME280;50314;50.618;10.642;2023-04-08T12:42:02;97230.50;;;21.82;18.22
64064;BME280;50314;50.618;10.642;2023-04-08T12:44:29;97238.22;;;21.77;18.36
64064;BME280;50314;50.618;10.642;2023-04-08T12:46:54;97231.69;;;21.71;18.54
64064;BME280;50314;50.618;10.642;2023-04-08T12:49:22;97232.38;;;21.65;18.33
64064;BME280;50314;50.618;10.642;2023-04-08T12:51:48;97243.75;;;21.59;18.39
64064;BME280;50314;50.618;10.642;2023-04-08T12:54:13;97246.97;;;21.54;18.42
64064;BME280;50314;50.618;10.642;2023-04-08T12:56:38;97243.94;;;21.49;18.32
64064;BME280;50314;50.618;10.642;2023-04-08T12:59:04;97243.59;;;21.44;18.42
64064;BME280;50314;50.618;10.642;2023-04-08T13:01:30;97237.94;;;21.39;18.37
64064;BME280;50314;50.618;10.642;2023-04-08T13:03:55;97245.63;;;21.34;18.57